Latest Weather Observations for Albury

IDN60801

Issued at 6:32 am EST Wednesday 22 April 2015 (issued every 30 minutes, with the page automatically refreshed every 10 minutes)

About weather observations | Map of weather stations | Latest weather observations for NSW | Other Formats
Station Details ID: 072160 Name: ALBURY AIRPORT AWS Lat: -36.07 Lon: 146.95 Height: 163.5 m
Data from the previous 72 hours. | See also: Recent months at Albury
Date/Time
EST
Temp
°C
App
Temp
°C
Dew
Point
Rel
Hum
%
Delta-T
°C
Wind Press
QNH
hPa
Press
MSL
hPa
Rain
since 9 am
mm
Dir
 
Spd
km/h
Gust
km/h
Spd
kts
Gust
kts
22/06:30am 7.2 5.3 5.0 86 1.0 W 4 9 2 5 1021.2 1021.1 0.0
22/06:00am 7.7 5.3 5.3 85 1.1 WSW 7 13 4 7 1021.1 1021.0 0.0
22/05:30am 7.6 5.9 5.9 89 0.8 NNW 4 9 2 5 1021.0 1020.9 0.0
22/05:00am 7.1 4.7 5.3 88 0.8 NNW 7 9 4 5 1021.1 1021.0 0.0
22/04:30am 7.2 4.9 4.7 84 1.1 E 6 9 3 5 1021.1 1021.0 0.0
22/04:00am 8.2 5.8 5.3 82 1.3 NNE 7 9 4 5 1021.1 1021.0 0.0
22/03:30am 9.0 6.1 4.8 75 1.9 WSW 9 17 5 9 1021.1 1021.0 0.0
22/03:00am 9.1 5.7 5.8 80 1.5 WSW 13 17 7 9 1021.3 1021.2 0.0
22/02:30am 7.8 6.4 5.4 85 1.1 NE 2 7 1 4 1021.9 1021.8 0.0
22/02:00am 8.6 5.8 5.2 79 1.5 S 9 9 5 5 1022.5 1022.3 0.0
22/01:30am 9.6 7.3 5.6 76 1.8 S 7 11 4 6 1022.9 1022.7 0.0
22/01:00am 10.1 6.9 5.3 72 2.2 W 11 15 6 8 1022.8 1022.6 0.0
22/12:30am 10.1 8.0 5.7 74 2.0 SSW 6 9 3 5 1023.0 1022.8 0.0
22/12:00am 10.6 7.6 5.8 72 2.2 SW 11 15 6 8 1023.3 1023.1 0.0
 
Date/Time
EST
Temp
°C
App
Temp
°C
Dew
Point
Rel
Hum
%
Delta-T
°C
Wind Press
QNH
hPa
Press
MSL
hPa
Rain
since 9 am
mm
Dir
 
Spd
km/h
Gust
km/h
Spd
kts
Gust
kts
21/11:30pm 10.1 7.4 5.5 73 2.1 WNW 9 11 5 6 1023.8 1023.6 0.0
21/11:00pm 10.5 9.1 5.7 72 2.2 SE 2 7 1 4 1024.3 1024.1 0.0
21/10:30pm 10.6 8.2 5.4 70 2.4 W 7 11 4 6 1024.7 1024.5 0.0
21/10:00pm 11.7 10.3 5.6 66 2.8 E 2 6 1 3 1025.1 1024.9 0.0
21/09:30pm 12.4 10.0 5.1 61 3.4 S 7 9 4 5 1025.5 1025.4 0.0
21/09:00pm 13.5 10.0 5.4 58 3.8 SSE 13 19 7 10 1025.7 1025.6 0.0
21/08:30pm 14.0 9.2 5.6 57 4.0 SSE 20 32 11 17 1025.7 1025.6 0.0
21/08:00pm 14.6 8.6 5.4 54 4.4 SSE 26 41 14 22 1025.5 1025.4 0.0
21/07:30pm 14.6 9.9 5.1 53 4.5 SSE 19 35 10 19 1025.7 1025.6 0.0
21/07:00pm 15.0 10.3 5.0 51 4.7 SE 19 28 10 15 1025.7 1025.6 0.0
21/06:30pm 15.1 10.4 5.0 51 4.8 SSE 19 26 10 14 1025.7 1025.6 0.0
21/06:00pm 15.5 10.2 4.8 49 5.0 SSE 22 37 12 20 1025.5 1025.4 0.0
21/05:30pm 16.0 10.6 4.7 47 5.4 SSE 22 32 12 17 1025.2 1025.0 0.0
21/05:00pm 16.6 9.7 4.6 45 5.7 SSE 30 48 16 26 1024.9 1024.7 0.0
21/04:48pm 16.8 9.9 4.5 44 5.8 SSE 30 48 16 26 1024.8 1024.6 0.0
21/04:30pm 17.1 10.5 4.4 43 6.0 SSE 28 43 15 23 1024.8 1024.6 0.0
21/04:00pm 17.5 10.0 4.5 42 6.2 SSE 33 44 18 24 1024.9 1024.7 0.0
21/03:30pm 18.2 11.3 4.4 40 6.6 SSE 30 43 16 23 1024.9 1024.7 0.0
21/03:00pm 18.5 11.6 4.7 40 6.6 S 30 46 16 25 1024.9 1024.7 0.0
21/02:53pm 18.2 11.6 4.0 39 6.8 S 28 46 15 25 1025.0 1024.8 0.0
21/02:30pm 18.7 11.7 4.1 38 7.0 S 30 39 16 21 1025.0 1024.8 0.0
21/02:00pm 18.4 10.9 3.5 37 7.0 S 32 43 17 23 1025.1 1024.9 0.0
21/01:30pm 18.8 11.7 3.8 37 7.1 S 30 41 16 22 1025.5 1025.4 0.0
21/01:00pm 18.5 11.8 3.6 37 7.0 SSE 28 43 15 23 1025.7 1025.6 0.0
21/12:30pm 18.9 12.7 4.3 38 7.0 SSE 26 39 14 21 1026.0 1025.9 0.0
21/12:03pm 17.9 11.2 3.4 38 6.8 SSE 28 46 15 25 1026.4 1026.3 0.0
21/12:00pm 18.0 11.7 3.5 38 6.8 SSE 26 37 14 20 1026.5 1026.4 0.0
21/11:30am 17.6 10.5 3.5 39 6.6 SSE 30 39 16 21 1026.8 1026.7 0.0
21/11:00am 17.0 10.6 3.3 40 6.3 SSE 26 37 14 20 1027.3 1027.2 0.0
21/10:30am 16.7 9.4 4.4 44 5.8 S 32 43 17 23 1027.4 1027.3 0.0
21/10:00am 16.6 10.5 4.6 45 5.7 SSE 26 37 14 20 1027.7 1027.6 0.0
21/09:30am 16.1 10.8 4.8 47 5.4 SE 22 35 12 19 1028.0 1027.9 0.0
21/09:00am 15.3 8.5 5.2 51 4.8 SSE 30 41 16 22 1028.2 1028.1 0.0
21/08:30am 14.5 9.2 5.0 53 4.5 SE 22 32 12 17 1028.3 1028.2 0.0
21/08:00am 13.9 9.6 5.3 56 4.0 SSE 17 28 9 15 1028.3 1028.2 0.0
21/07:30am 13.0 9.0 4.7 57 3.8 SSE 15 19 8 10 1028.2 1028.1 0.0
21/07:00am 12.2 7.4 4.7 60 3.4 SSE 19 26 10 14 1027.8 1027.7 0.0
21/06:30am 12.0 8.0 5.0 62 3.2 SE 15 20 8 11 1027.8 1027.7 0.0
21/06:00am 11.9 7.8 4.2 59 3.5 SE 15 22 8 12 1027.7 1027.6 0.0
21/05:30am 11.9 7.3 3.9 58 3.6 SSE 17 28 9 15 1027.7 1027.6 0.0
21/05:00am 12.0 7.0 3.5 56 3.8 SSE 19 26 10 14 1027.4 1027.3 0.0
21/04:30am 11.2 7.4 3.7 60 3.4 SSE 13 20 7 11 1027.1 1027.0 0.0
21/04:00am 10.8 8.2 3.1 59 3.4 S 6 9 3 5 1027.4 1027.3 0.0
21/03:30am 11.3 6.6 3.1 57 3.6 S 17 28 9 15 1027.5 1027.4 0.0
21/03:00am 11.9 7.3 3.7 57 3.7 SSE 17 28 9 15 1027.6 1027.5 0.0
21/02:30am 11.9 7.3 3.7 57 3.7 SSE 17 26 9 14 1028.1 1028.0 0.0
21/02:00am 11.9 7.7 3.7 57 3.7 SSE 15 22 8 12 1028.2 1028.1 0.0
21/01:30am 12.1 7.1 3.6 56 3.8 SSE 19 30 10 16 1028.7 1028.5 0.0
21/01:00am 12.3 6.7 3.3 54 4.0 SSE 22 33 12 18 1029.0 1028.8 0.0
21/12:30am 12.3 7.1 3.5 55 4.0 SSE 20 32 11 17 1029.0 1028.8 0.0
21/12:00am 12.2 6.6 3.4 55 3.9 SSE 22 30 12 16 1029.4 1029.2 0.0
 
Date/Time
EST
Temp
°C
App
Temp
°C
Dew
Point
Rel
Hum
%
Delta-T
°C
Wind Press
QNH
hPa
Press
MSL
hPa
Rain
since 9 am
mm
Dir
 
Spd
km/h
Gust
km/h
Spd
kts
Gust
kts
20/11:30pm 12.5 7.8 3.2 53 4.2 SSE 17 30 9 16 1029.7 1029.5 0.0
20/11:00pm 12.4 7.1 3.1 53 4.1 SSE 20 33 11 18 1029.7 1029.5 0.0
20/10:30pm 12.1 7.7 2.8 53 4.1 SSE 15 26 8 14 1029.8 1029.6 0.0
20/10:00pm 12.4 7.3 2.8 52 4.2 SSE 19 26 10 14 1029.8 1029.6 0.0
20/09:30pm 12.3 7.6 3.0 53 4.1 S 17 24 9 13 1029.7 1029.5 0.0
20/09:00pm 12.6 7.5 3.3 53 4.1 SSE 19 32 10 17 1029.7 1029.5 0.0
20/08:30pm 12.7 7.5 3.6 54 4.1 SSE 20 37 11 20 1029.6 1029.4 0.0
20/08:00pm 13.0 7.9 3.9 54 4.1 SSE 20 35 11 19 1029.6 1029.4 0.0
20/07:30pm 13.1 8.6 4.0 54 4.2 SSE 17 26 9 14 1029.5 1029.3 0.0
20/07:00pm 12.9 8.7 3.8 54 4.1 SE 15 24 8 13 1029.8 1029.6 0.0
20/06:30pm 13.6 8.1 3.9 52 4.4 SSE 22 35 12 19 1029.8 1029.6 0.0
20/06:00pm 13.9 8.0 3.7 50 4.6 S 24 37 13 20 1029.4 1029.2 0.0
20/05:30pm 14.6 9.4 3.4 47 5.1 SSE 20 30 11 16 1029.5 1029.3 0.0
20/05:00pm 15.4 8.7 3.5 45 5.4 SSE 28 39 15 21 1029.1 1028.9 0.0
20/04:30pm 16.0 8.9 3.4 43 5.8 SSE 30 44 16 24 1028.7 1028.5 0.0
20/04:00pm 16.7 10.7 3.4 41 6.1 SSE 24 39 13 21 1028.4 1028.3 0.0
20/03:30pm 16.9 10.5 3.2 40 6.3 SSE 26 39 14 21 1028.4 1028.3 0.0
20/03:00pm 16.8 10.0 3.1 40 6.3 SE 28 44 15 24 1028.6 1028.4 0.0
20/02:42pm 17.0 10.2 3.3 40 6.4 SE 28 52 15 28 1028.4 1028.3 0.0
20/02:30pm 17.1 10.3 3.1 39 6.5 SE 28 43 15 23 1028.4 1028.3 0.0
20/02:00pm 17.0 9.4 3.0 39 6.4 SE 32 52 17 28 1028.6 1028.4 0.0
20/01:51pm 17.2 9.6 2.8 38 6.6 SE 32 52 17 28 1028.6 1028.4 0.0
20/01:30pm 17.9 11.8 3.0 37 6.9 SSE 24 43 13 23 1028.6 1028.4 0.0
20/01:00pm 17.2 11.1 2.8 38 6.6 SSE 24 33 13 18 1028.9 1028.7 0.0
20/12:30pm 16.5 8.6 2.2 38 6.5 SSE 33 54 18 29 1029.5 1029.3 0.0
20/12:07pm 16.1 8.2 2.2 39 6.3 SSE 33 52 18 28 1030.1 1029.9 0.0
20/12:00pm 15.9 7.3 2.7 41 6.0 SE 37 50 20 27 1030.3 1030.1 0.0
20/11:40am 15.4 8.1 2.2 41 5.9 SE 30 48 16 26 1031.0 1030.9 0.0
20/11:30am 15.6 8.3 2.7 42 5.9 SE 30 46 16 25 1031.1 1031.0 0.0
20/11:25am 15.7 8.7 2.2 40 6.1 SE 28 46 15 25 1031.2 1031.1 0.0
20/11:00am 15.1 8.3 3.0 44 5.5 SE 28 37 15 20 1031.4 1031.3 0.0
20/10:30am 14.9 8.0 2.8 44 5.5 SE 28 41 15 22 1031.2 1031.1 0.0
20/10:10am 14.6 6.9 2.5 44 5.4 SE 32 50 17 27 1031.3 1031.2 0.0
20/10:00am 14.6 8.1 2.8 45 5.3 SE 26 41 14 22 1031.0 1030.9 0.0
20/09:30am 13.9 8.8 2.8 47 5.0 S 19 32 10 17 1030.8 1030.7 0.0
20/09:00am 13.1 7.7 1.5 45 5.0 S 19 28 10 15 1031.1 1031.0 0.2
20/08:30am 12.7 9.8 2.6 50 4.5 S 7 17 4 9 1031.4 1031.3 0.2
20/08:00am 11.6 8.2 1.8 51 4.2 WSW 9 15 5 8 1031.6 1031.5 0.2
20/07:30am 11.2 7.1 2.0 53 4.0 SE 13 28 7 15 1031.5 1031.4 0.2
20/07:00am 9.8 5.6 1.7 57 3.4 S 13 20 7 11 1031.2 1031.1 0.2
20/06:30am 9.7 5.8 1.4 56 3.5 S 11 15 6 8 1031.1 1031.0 0.2
20/06:00am 10.6 3.9 1.4 53 3.8 SSE 26 39 14 21 1030.7 1030.6 0.2
20/05:30am 9.7 4.1 1.4 56 3.5 SSE 20 30 11 16 1030.3 1030.1 0.2
20/05:00am 9.3 4.6 1.0 56 3.4 SSE 15 20 8 11 1029.9 1029.7 0.2
20/04:30am 9.0 4.0 1.2 58 3.2 SSE 17 22 9 12 1029.7 1029.5 0.2
20/04:00am 8.9 4.2 1.1 58 3.2 SSE 15 24 8 13 1029.6 1029.4 0.2
20/03:30am 7.2 2.9 0.9 64 2.5 S 13 17 7 9 1029.7 1029.5 0.2
20/03:00am 8.8 4.1 1.0 58 3.2 SSE 15 22 8 12 1029.8 1029.6 0.2
20/02:30am 8.5 4.2 1.0 59 3.1 S 13 17 7 9 1029.8 1029.6 0.2
20/02:00am 9.2 4.6 1.4 58 3.2 SSE 15 20 8 11 1030.0 1029.8 0.2
20/01:30am 9.1 4.5 1.8 60 3.1 SSE 15 20 8 11 1030.1 1029.9 0.2
20/01:00am 8.4 4.4 2.8 68 2.4 S 13 17 7 9 1030.2 1030.0 0.2
20/12:30am 7.9 4.2 2.6 69 2.2 S 11 17 6 9 1030.2 1030.0 0.2
20/12:00am 7.5 5.3 3.6 76 1.7 W 4 7 2 4 1030.3 1030.1 0.2
 
Date/Time
EST
Temp
°C
App
Temp
°C
Dew
Point
Rel
Hum
%
Delta-T
°C
Wind Press
QNH
hPa
Press
MSL
hPa
Rain
since 9 am
mm
Dir
 
Spd
km/h
Gust
km/h
Spd
kts
Gust
kts
19/11:30pm 7.5 5.7 3.2 74 1.8 ENE 2 7 1 4 1030.3 1030.1 0.2
19/11:00pm 8.7 7.3 3.7 71 2.2 CALM 0 6 0 3 1030.3 1030.1 0.2
19/10:30pm 9.6 6.8 3.4 65 2.7 S 7 11 4 6 1030.3 1030.1 0.2
19/10:00pm 9.9 7.1 3.0 62 3.0 S 7 11 4 6 1030.2 1030.0 0.2
19/09:30pm 10.0 6.5 3.5 64 2.9 S 11 13 6 7 1029.8 1029.6 0.2
19/09:00pm 10.5 6.6 3.3 61 3.1 SSW 13 17 7 9 1029.5 1029.3 0.2
19/08:30pm 9.6 6.4 2.9 63 2.9 S 9 13 5 7 1029.0 1028.8 0.2
19/08:00pm 11.2 7.9 2.5 55 3.8 SSE 9 13 5 7 1028.6 1028.4 0.2
19/07:30pm 11.3 7.2 2.1 53 4.0 S 13 20 7 11 1028.1 1028.0 0.2
19/07:00pm 12.1 7.2 1.7 49 4.4 S 17 22 9 12 1027.5 1027.4 0.2
19/06:30pm 13.2 7.7 1.8 46 5.0 SSE 20 32 11 17 1026.9 1026.8 0.2
19/06:00pm 13.9 8.8 3.1 48 4.8 SSE 19 26 10 14 1026.1 1026.0 0.2
19/05:30pm 13.7 11.1 6.1 60 3.7 E 9 13 5 7 1025.4 1025.3 0.2
19/05:00pm 14.6 11.5 5.7 55 4.2 SSE 11 15 6 8 1024.9 1024.7 0.2
19/04:30pm 15.0 10.9 6.0 55 4.4 SSW 17 22 9 12 1024.5 1024.3 0.2
19/04:00pm 16.1 11.7 4.5 46 5.5 SE 17 22 9 12 1024.0 1023.8 0.2
19/03:30pm 16.3 12.5 5.6 49 5.2 SE 15 22 8 12 1023.5 1023.3 0.2
19/03:00pm 15.8 10.9 5.1 49 5.1 SSE 20 30 11 16 1023.3 1023.1 0.2
19/02:30pm 17.1 13.3 6.0 48 5.5 ESE 15 20 8 11 1023.0 1022.8 0.2
19/02:00pm 15.9 11.7 5.5 50 5.0 SE 17 24 9 13 1022.8 1022.6 0.2
19/01:30pm 16.0 11.9 6.4 53 4.7 SE 17 22 9 12 1022.7 1022.5 0.0
19/01:00pm 15.2 12.0 7.0 58 4.0 SE 13 20 7 11 1022.8 1022.6 0.0
19/12:30pm 15.7 12.7 7.7 59 4.0 SE 13 19 7 10 1022.7 1022.5 0.0
19/12:00pm 14.7 10.6 8.0 64 3.4 SSE 19 24 10 13 1022.6 1022.4 0.0
19/11:30am 15.8 13.3 8.1 60 3.9 SSE 11 17 6 9 1022.5 1022.3 0.0
19/11:00am 14.7 11.1 8.2 65 3.3 S 17 22 9 12 1022.4 1022.2 0.0
19/10:30am 14.3 11.5 8.5 68 2.9 SSW 13 20 7 11 1022.0 1021.9 0.0
19/10:00am 13.7 10.7 7.9 68 2.9 WSW 13 19 7 10 1021.8 1021.7 0.0
19/09:30am 13.7 9.4 7.9 68 2.9 W 20 30 11 16 1021.5 1021.4 0.0
19/09:00am 12.6 8.2 7.5 71 2.5 W 20 26 11 14 1021.2 1021.1 15.8
19/08:30am 11.7 7.0 7.6 76 2.0 W 22 30 12 16 1020.7 1020.6 15.8
19/08:00am 11.0 5.6 7.9 81 1.5 W 26 32 14 17 1020.1 1019.9 15.8
19/07:30am 10.4 7.0 7.8 84 1.3 W 15 24 8 13 1019.7 1019.5 15.8
19/07:00am 10.2 6.5 8.0 86 1.1 W 17 26 9 14 1019.0 1018.8 15.8

Other Formats:

Comma delimited format used in spreadsheet applications
http://www.bom.gov.au/fwo/IDN60801/IDN60801.95896.axf

JavaScript Object Notation format (JSON) in row-major order
http://www.bom.gov.au/fwo/IDN60801/IDN60801.95896.json